sensor_id;sensor_type;location;lat;lon;timestamp;pressure;altitude;pressure_sealevel;temperature;humidity
8697;BME280;4385;48.848;8.924;2023-01-26T00:01:36;97901.56;;;15.86;100.00
8697;BME280;4385;48.848;8.924;2023-01-26T00:04:01;97882.94;;;15.86;100.00
8697;BME280;4385;48.848;8.924;2023-01-26T00:06:27;97883.78;;;15.86;100.00
8697;BME280;4385;48.848;8.924;2023-01-26T00:08:53;97888.03;;;15.86;100.00
8697;BME280;4385;48.848;8.924;2023-01-26T00:11:22;97876.16;;;15.84;100.00
8697;BME280;4385;48.848;8.924;2023-01-26T00:13:49;97868.53;;;15.83;100.00
8697;BME280;4385;48.848;8.924;2023-01-26T00:16:15;97866.84;;;15.83;100.00
8697;BME280;4385;48.848;8.924;2023-01-26T00:18:41;97869.41;;;15.83;100.00
8697;BME280;4385;48.848;8.924;2023-01-26T00:21:10;97864.31;;;15.83;100.00
8697;BME280;4385;48.848;8.924;2023-01-26T00:23:36;97857.53;;;15.86;100.00
8697;BME280;4385;48.848;8.924;2023-01-26T00:26:01;97851.59;;;15.87;100.00
8697;BME280;4385;48.848;8.924;2023-01-26T00:28:29;97839.72;;;15.87;100.00
8697;BME280;4385;48.848;8.924;2023-01-26T00:31:06;97832.94;;;15.86;100.00
8697;BME280;4385;48.848;8.924;2023-01-26T00:33:31;97838.88;;;15.85;100.00
8697;BME280;4385;48.848;8.924;2023-01-26T00:35:56;97840.59;;;15.83;100.00
8697;BME280;4385;48.848;8.924;2023-01-26T00:38:22;97836.38;;;15.82;100.00
8697;BME280;4385;48.848;8.924;2023-01-26T00:40:47;97837.22;;;15.82;100.00
8697;BME280;4385;48.848;8.924;2023-01-26T00:43:13;97831.28;;;15.82;100.00
8697;BME280;4385;48.848;8.924;2023-01-26T00:45:38;97827.91;;;15.80;100.00
8697;BME280;4385;48.848;8.924;2023-01-26T00:48:03;97827.91;;;15.78;100.00
8697;BME280;4385;48.848;8.924;2023-01-26T00:50:29;97826.22;;;15.77;100.00
8697;BME280;4385;48.848;8.924;2023-01-26T00:52:54;97816.94;;;15.76;100.00
8697;BME280;4385;48.848;8.924;2023-01-26T00:55:19;97819.47;;;15.76;100.00
8697;BME280;4385;48.848;8.924;2023-01-26T00:57:45;97819.47;;;15.76;100.00
8697;BME280;4385;48.848;8.924;2023-01-26T01:00:10;97826.25;;;15.76;100.00
8697;BME280;4385;48.848;8.924;2023-01-26T01:02:41;97823.72;;;15.74;100.00
8697;BME280;4385;48.848;8.924;2023-01-26T01:05:06;97824.56;;;15.73;100.00
8697;BME280;4385;48.848;8.924;2023-01-26T01:07:32;97824.56;;;15.73;100.00
8697;BME280;4385;48.848;8.924;2023-01-26T01:09:57;97829.66;;;15.73;100.00
8697;BME280;4385;48.848;8.924;2023-01-26T01:12:25;97824.56;;;15.73;100.00
8697;BME280;4385;48.848;8.924;2023-01-26T01:14:50;97822.03;;;15.73;100.00
8697;BME280;4385;48.848;8.924;2023-01-26T01:17:15;97816.09;;;15.74;100.00
8697;BME280;4385;48.848;8.924;2023-01-26T01:19:41;97814.41;;;15.75;100.00
8697;BME280;4385;48.848;8.924;2023-01-26T01:22:06;97811.84;;;15.76;100.00
8697;BME280;4385;48.848;8.924;2023-01-26T01:24:31;97813.53;;;15.77;100.00
8697;BME280;4385;48.848;8.924;2023-01-26T01:26:59;97813.53;;;15.77;100.00
8697;BME280;4385;48.848;8.924;2023-01-26T01:29:24;97805.91;;;15.77;100.00
8697;BME280;4385;48.848;8.924;2023-01-26T01:31:49;97809.31;;;15.76;100.00
8697;BME280;4385;48.848;8.924;2023-01-26T01:34:15;97813.53;;;15.74;100.00
8697;BME280;4385;48.848;8.924;2023-01-26T01:36:40;97806.78;;;15.73;100.00
8697;BME280;4385;48.848;8.924;2023-01-26T01:39:05;97805.09;;;15.70;100.00
8697;BME280;4385;48.848;8.924;2023-01-26T01:41:30;97794.94;;;15.69;100.00
8697;BME280;4385;48.848;8.924;2023-01-26T01:44:15;97797.50;;;15.66;100.00
8697;BME280;4385;48.848;8.924;2023-01-26T01:47:03;97784.78;;;15.64;100.00
8697;BME280;4385;48.848;8.924;2023-01-26T01:49:36;97787.34;;;15.61;100.00
8697;BME280;4385;48.848;8.924;2023-01-26T01:52:15;97786.53;;;15.61;100.00
8697;BME280;4385;48.848;8.924;2023-01-26T01:54:49;97778.06;;;15.58;100.00
8697;BME280;4385;48.848;8.924;2023-01-26T01:57:21;97781.47;;;15.59;100.00
8697;BME280;4385;48.848;8.924;2023-01-26T01:59:55;97782.28;;;15.58;100.00
8697;BME280;4385;48.848;8.924;2023-01-26T02:02:23;97778.94;;;15.57;100.00
8697;BME280;4385;48.848;8.924;2023-01-26T02:04:49;97775.53;;;15.57;100.00
8697;BME280;4385;48.848;8.924;2023-01-26T02:07:14;97784.81;;;15.58;100.00
8697;BME280;4385;48.848;8.924;2023-01-26T02:09:40;97792.44;;;15.58;100.00
8697;BME280;4385;48.848;8.924;2023-01-26T02:12:29;97788.22;;;15.58;100.00
8697;BME280;4385;48.848;8.924;2023-01-26T02:14:56;97784.00;;;15.57;100.00
8697;BME280;4385;48.848;8.924;2023-01-26T02:17:22;97778.91;;;15.59;100.00
8697;BME280;4385;48.848;8.924;2023-01-26T02:25:12;97776.34;;;15.62;100.00
8697;BME280;4385;48.848;8.924;2023-01-26T02:27:42;97783.13;;;15.62;100.00
8697;BME280;4385;48.848;8.924;2023-01-26T02:30:08;97774.66;;;15.61;100.00
8697;BME280;4385;48.848;8.924;2023-01-26T02:32:34;97766.22;;;15.61;100.00
8697;BME280;4385;48.848;8.924;2023-01-26T02:35:00;97761.94;;;15.61;100.00
8697;BME280;4385;48.848;8.924;2023-01-26T02:37:25;97766.22;;;15.61;100.00
8697;BME280;4385;48.848;8.924;2023-01-26T02:40:06;97762.81;;;15.60;100.00
8697;BME280;4385;48.848;8.924;2023-01-26T02:42:35;97763.69;;;15.57;100.00
8697;BME280;4385;48.848;8.924;2023-01-26T02:45:07;97763.69;;;15.54;100.00
8697;BME280;4385;48.848;8.924;2023-01-26T02:47:33;97765.41;;;15.52;100.00
8697;BME280;4385;48.848;8.924;2023-01-26T02:49:58;97767.97;;;15.49;100.00
8697;BME280;4385;48.848;8.924;2023-01-26T02:52:26;97766.28;;;15.48;100.00
8697;BME280;4385;48.848;8.924;2023-01-26T02:54:52;97766.28;;;15.48;100.00
8697;BME280;4385;48.848;8.924;2023-01-26T02:57:36;97756.13;;;15.48;100.00
8697;BME280;4385;48.848;8.924;2023-01-26T03:00:04;97761.19;;;15.48;100.00
8697;BME280;4385;48.848;8.924;2023-01-26T03:02:30;97767.09;;;15.49;100.00
8697;BME280;4385;48.848;8.924;2023-01-26T03:04:55;97759.50;;;15.47;100.00
8697;BME280;4385;48.848;8.924;2023-01-26T03:07:20;97761.19;;;15.48;100.00
8697;BME280;4385;48.848;8.924;2023-01-26T03:09:45;97755.25;;;15.48;100.00
8697;BME280;4385;48.848;8.924;2023-01-26T03:12:11;97753.59;;;15.48;100.00
8697;BME280;4385;48.848;8.924;2023-01-26T03:14:37;97754.41;;;15.49;100.00
8697;BME280;4385;48.848;8.924;2023-01-26T03:17:02;97747.63;;;15.49;100.00
8697;BME280;4385;48.848;8.924;2023-01-26T03:19:28;97741.69;;;15.49;100.00
8697;BME280;4385;48.848;8.924;2023-01-26T03:22:12;97744.22;;;15.50;100.00
8697;BME280;4385;48.848;8.924;2023-01-26T03:24:56;97749.31;;;15.50;100.00
8697;BME280;4385;48.848;8.924;2023-01-26T03:27:42;97733.25;;;15.50;100.00
8697;BME280;4385;48.848;8.924;2023-01-26T03:30:09;97734.06;;;15.50;100.00
8697;BME280;4385;48.848;8.924;2023-01-26T03:32:34;97732.41;;;15.49;100.00
8697;BME280;4385;48.848;8.924;2023-01-26T03:35:00;97734.06;;;15.50;100.00
8697;BME280;4385;48.848;8.924;2023-01-26T03:37:25;97738.34;;;15.50;100.00
8697;BME280;4385;48.848;8.924;2023-01-26T03:39:50;97727.31;;;15.49;100.00
8697;BME280;4385;48.848;8.924;2023-01-26T03:42:35;97717.16;;;15.48;100.00
8697;BME280;4385;48.848;8.924;2023-01-26T03:45:19;97717.19;;;15.46;100.00
8697;BME280;4385;48.848;8.924;2023-01-26T03:48:08;97717.19;;;15.46;100.00
8697;BME280;4385;48.848;8.924;2023-01-26T03:50:53;97713.78;;;15.44;100.00
8697;BME280;4385;48.848;8.924;2023-01-26T03:53:37;97710.41;;;15.45;100.00
8697;BME280;4385;48.848;8.924;2023-01-26T03:56:21;97712.09;;;15.46;100.00
8697;BME280;4385;48.848;8.924;2023-01-26T03:58:52;97713.78;;;15.47;100.00
8697;BME280;4385;48.848;8.924;2023-01-26T04:01:19;97712.06;;;15.49;100.00
8697;BME280;4385;48.848;8.924;2023-01-26T04:03:49;97708.69;;;15.47;100.00
8697;BME280;4385;48.848;8.924;2023-01-26T04:06:34;97712.09;;;15.48;100.00
8697;BME280;4385;48.848;8.924;2023-01-26T04:09:19;97709.56;;;15.46;100.00
8697;BME280;4385;48.848;8.924;2023-01-26T04:11:45;97710.41;;;15.45;100.00
8697;BME280;4385;48.848;8.924;2023-01-26T04:14:11;97705.34;;;15.45;100.00
8697;BME280;4385;48.848;8.924;2023-01-26T04:16:56;97712.09;;;15.46;100.00
8697;BME280;4385;48.848;8.924;2023-01-26T04:19:40;97711.25;;;15.45;100.00
8697;BME280;4385;48.848;8.924;2023-01-26T04:22:24;97717.19;;;15.46;100.00
8697;BME280;4385;48.848;8.924;2023-01-26T04:24:49;97714.63;;;15.48;100.00
8697;BME280;4385;48.848;8.924;2023-01-26T04:27:14;97710.41;;;15.48;100.00
8697;BME280;4385;48.848;8.924;2023-01-26T04:29:39;97710.41;;;15.48;100.00
8697;BME280;4385;48.848;8.924;2023-01-26T04:32:05;97716.31;;;15.47;100.00
8697;BME280;4385;48.848;8.924;2023-01-26T04:34:30;97710.41;;;15.45;100.00
8697;BME280;4385;48.848;8.924;2023-01-26T04:36:55;97712.09;;;15.44;100.00
8697;BME280;4385;48.848;8.924;2023-01-26T04:39:20;97714.66;;;15.43;100.00
8697;BME280;4385;48.848;8.924;2023-01-26T04:41:46;97712.97;;;15.42;100.00
8697;BME280;4385;48.848;8.924;2023-01-26T04:44:11;97715.53;;;15.40;100.00
8697;BME280;4385;48.848;8.924;2023-01-26T04:46:36;97716.38;;;15.39;100.00
8697;BME280;4385;48.848;8.924;2023-01-26T04:49:01;97723.16;;;15.37;100.00
8697;BME280;4385;48.848;8.924;2023-01-26T04:51:27;97717.25;;;15.35;100.00
8697;BME280;4385;48.848;8.924;2023-01-26T04:53:52;97708.78;;;15.33;100.00
8697;BME280;4385;48.848;8.924;2023-01-26T04:56:21;97704.56;;;15.33;100.00
8697;BME280;4385;48.848;8.924;2023-01-26T04:58:47;97696.97;;;15.30;100.00
8697;BME280;4385;48.848;8.924;2023-01-26T05:01:12;97694.41;;;15.30;100.00
8697;BME280;4385;48.848;8.924;2023-01-26T05:03:37;97690.19;;;15.29;100.00
8697;BME280;4385;48.848;8.924;2023-01-26T05:06:03;97696.97;;;15.30;100.00
8697;BME280;4385;48.848;8.924;2023-01-26T05:08:28;97696.97;;;15.30;100.00
8697;BME280;4385;48.848;8.924;2023-01-26T05:10:53;97702.03;;;15.30;100.00
8697;BME280;4385;48.848;8.924;2023-01-26T05:13:19;97702.03;;;15.30;100.00
8697;BME280;4385;48.848;8.924;2023-01-26T05:15:45;97695.25;;;15.32;100.00
8697;BME280;4385;48.848;8.924;2023-01-26T05:18:10;97700.34;;;15.32;100.00
8697;BME280;4385;48.848;8.924;2023-01-26T05:20:36;97698.63;;;15.33;100.00
8697;BME280;4385;48.848;8.924;2023-01-26T05:23:01;97699.50;;;15.32;100.00
8697;BME280;4385;48.848;8.924;2023-01-26T05:25:27;97707.97;;;15.32;100.00
8697;BME280;4385;48.848;8.924;2023-01-26T05:27:52;97705.41;;;15.32;100.00
8697;BME280;4385;48.848;8.924;2023-01-26T05:30:18;97695.25;;;15.32;100.00
8697;BME280;4385;48.848;8.924;2023-01-26T05:32:43;97696.09;;;15.33;100.00
8697;BME280;4385;48.848;8.924;2023-01-26T05:35:09;97699.47;;;15.33;100.00
8697;BME280;4385;48.848;8.924;2023-01-26T05:37:34;97705.41;;;15.32;100.00
8697;BME280;4385;48.848;8.924;2023-01-26T05:39:59;97701.16;;;15.33;100.00
8697;BME280;4385;48.848;8.924;2023-01-26T05:42:25;97700.34;;;15.31;100.00
8697;BME280;4385;48.848;8.924;2023-01-26T05:44:51;97705.41;;;15.32;100.00
8697;BME280;4385;48.848;8.924;2023-01-26T05:47:17;97704.56;;;15.30;100.00
8697;BME280;4385;48.848;8.924;2023-01-26T05:49:43;97701.19;;;15.30;100.00
8697;BME280;4385;48.848;8.924;2023-01-26T05:52:15;97699.50;;;15.29;100.00
8697;BME280;4385;48.848;8.924;2023-01-26T05:54:41;97702.88;;;15.31;100.00
8697;BME280;4385;48.848;8.924;2023-01-26T05:57:07;97707.09;;;15.33;100.00
8697;BME280;4385;48.848;8.924;2023-01-26T05:59:32;97708.75;;;15.36;100.00
8697;BME280;4385;48.848;8.924;2023-01-26T06:01:58;97701.13;;;15.39;100.00
8697;BME280;4385;48.848;8.924;2023-01-26T06:04:23;97701.09;;;15.44;100.00
8697;BME280;4385;48.848;8.924;2023-01-26T06:06:53;97703.63;;;15.47;100.00
8697;BME280;4385;48.848;8.924;2023-01-26T06:09:19;97700.22;;;15.51;100.00
8697;BME280;4385;48.848;8.924;2023-01-26T06:11:44;97684.94;;;15.56;100.00
8697;BME280;4385;48.848;8.924;2023-01-26T06:14:09;97697.63;;;15.61;100.00
8697;BME280;4385;48.848;8.924;2023-01-26T06:16:35;97702.66;;;15.65;100.00
8697;BME280;4385;48.848;8.924;2023-01-26T06:19:00;97707.72;;;15.68;100.00
8697;BME280;4385;48.848;8.924;2023-01-26T06:21:25;97710.25;;;15.71;100.00
8697;BME280;4385;48.848;8.924;2023-01-26T06:23:50;97705.97;;;15.72;100.00
8697;BME280;4385;48.848;8.924;2023-01-26T06:26:16;97702.59;;;15.73;100.00
8697;BME280;4385;48.848;8.924;2023-01-26T06:28:41;97698.38;;;15.72;100.00
8697;BME280;4385;48.848;8.924;2023-01-26T06:31:07;97702.63;;;15.71;100.00
8697;BME280;4385;48.848;8.924;2023-01-26T06:33:34;97707.72;;;15.71;100.00
8697;BME280;4385;48.848;8.924;2023-01-26T06:36:04;97706.84;;;15.71;100.00
8697;BME280;4385;48.848;8.924;2023-01-26T06:38:30;97707.72;;;15.70;100.00
8697;BME280;4385;48.848;8.924;2023-01-26T06:41:00;97710.25;;;15.70;100.00
8697;BME280;4385;48.848;8.924;2023-01-26T06:43:29;97711.09;;;15.69;100.00
8697;BME280;4385;48.848;8.924;2023-01-26T06:45:55;97709.41;;;15.68;100.00
8697;BME280;4385;48.848;8.924;2023-01-26T06:48:24;97720.44;;;15.67;100.00
8697;BME280;4385;48.848;8.924;2023-01-26T06:50:50;97717.06;;;15.65;100.00
8697;BME280;4385;48.848;8.924;2023-01-26T06:53:29;97712.81;;;15.65;100.00
8697;BME280;4385;48.848;8.924;2023-01-26T06:55:57;97708.56;;;15.66;100.00
8697;BME280;4385;48.848;8.924;2023-01-26T06:58:22;97709.41;;;15.66;100.00
8697;BME280;4385;48.848;8.924;2023-01-26T07:00:48;97718.69;;;15.70;100.00
8697;BME280;4385;48.848;8.924;2023-01-26T07:03:13;97714.47;;;15.73;100.00
8697;BME280;4385;48.848;8.924;2023-01-26T07:05:38;97718.66;;;15.75;100.00
8697;BME280;4385;48.848;8.924;2023-01-26T07:08:04;97713.56;;;15.77;100.00
8697;BME280;4385;48.848;8.924;2023-01-26T07:10:31;97722.06;;;15.77;100.00
8697;BME280;4385;48.848;8.924;2023-01-26T07:12:56;97716.97;;;15.77;100.00
8697;BME280;4385;48.848;8.924;2023-01-26T07:15:22;97722.06;;;15.77;100.00
8697;BME280;4385;48.848;8.924;2023-01-26T07:17:47;97717.81;;;15.78;100.00
8697;BME280;4385;48.848;8.924;2023-01-26T07:20:12;97720.34;;;15.79;100.00
8697;BME280;4385;48.848;8.924;2023-01-26T07:22:38;97723.72;;;15.78;100.00
8697;BME280;4385;48.848;8.924;2023-01-26T07:25:04;97729.66;;;15.79;100.00
8697;BME280;4385;48.848;8.924;2023-01-26T07:27:29;97738.16;;;15.78;100.00
8697;BME280;4385;48.848;8.924;2023-01-26T07:29:54;97725.47;;;15.76;100.00
8697;BME280;4385;48.848;8.924;2023-01-26T07:32:19;97733.06;;;15.76;100.00
8697;BME280;4385;48.848;8.924;2023-01-26T07:34:45;97724.59;;;15.77;100.00
8697;BME280;4385;48.848;8.924;2023-01-26T07:37:10;97731.38;;;15.75;100.00
8697;BME280;4385;48.848;8.924;2023-01-26T07:39:36;97733.09;;;15.73;100.00
8697;BME280;4385;48.848;8.924;2023-01-26T07:42:01;97718.72;;;15.69;100.00
8697;BME280;4385;48.848;8.924;2023-01-26T07:44:26;97728.88;;;15.69;100.00
8697;BME280;4385;48.848;8.924;2023-01-26T07:46:51;97727.19;;;15.68;100.00
8697;BME280;4385;48.848;8.924;2023-01-26T07:49:18;97728.84;;;15.72;100.00
8697;BME280;4385;48.848;8.924;2023-01-26T07:51:43;97731.34;;;15.77;100.00
8697;BME280;4385;48.848;8.924;2023-01-26T07:54:09;97727.94;;;15.82;100.00
8697;BME280;4385;48.848;8.924;2023-01-26T07:56:35;97725.38;;;15.89;100.00
8697;BME280;4385;48.848;8.924;2023-01-26T07:59:01;97733.78;;;15.97;100.00
8697;BME280;4385;48.848;8.924;2023-01-26T08:01:26;97719.31;;;16.07;100.00
8697;BME280;4385;48.848;8.924;2023-01-26T08:03:52;97719.22;;;16.16;100.00
8697;BME280;4385;48.848;8.924;2023-01-26T08:06:18;97724.22;;;16.24;100.00
8697;BME280;4385;48.848;8.924;2023-01-26T08:08:45;97724.16;;;16.33;100.00
8697;BME280;4385;48.848;8.924;2023-01-26T08:11:14;97740.19;;;16.42;100.00
8697;BME280;4385;48.848;8.924;2023-01-26T08:13:40;97729.94;;;16.48;100.00
8697;BME280;4385;48.848;8.924;2023-01-26T08:16:07;97739.19;;;16.55;100.00
8697;BME280;4385;48.848;8.924;2023-01-26T08:18:36;97734.06;;;16.60;100.00
8697;BME280;4385;48.848;8.924;2023-01-26T08:21:01;97733.19;;;16.63;100.00
8697;BME280;4385;48.848;8.924;2023-01-26T08:23:27;97745.03;;;16.67;100.00
8697;BME280;4385;48.848;8.924;2023-01-26T08:25:52;97739.06;;;16.68;100.00
8697;BME280;4385;48.848;8.924;2023-01-26T08:28:17;97737.38;;;16.68;100.00
8697;BME280;4385;48.848;8.924;2023-01-26T08:30:43;97741.59;;;16.68;100.00
8697;BME280;4385;48.848;8.924;2023-01-26T08:33:08;97739.94;;;16.67;100.00
8697;BME280;4385;48.848;8.924;2023-01-26T08:35:34;97738.25;;;16.66;100.00
8697;BME280;4385;48.848;8.924;2023-01-26T08:37:59;97736.56;;;16.65;100.00
8697;BME280;4385;48.848;8.924;2023-01-26T08:40:25;97729.78;;;16.64;100.00
8697;BME280;4385;48.848;8.924;2023-01-26T08:42:51;97733.16;;;16.66;100.00
8697;BME280;4385;48.848;8.924;2023-01-26T08:45:16;97731.44;;;16.66;100.00
8697;BME280;4385;48.848;8.924;2023-01-26T08:47:41;97723.78;;;16.68;100.00
8697;BME280;4385;48.848;8.924;2023-01-26T08:50:08;97725.47;;;16.72;100.00
8697;BME280;4385;48.848;8.924;2023-01-26T08:52:34;97723.69;;;16.77;100.00
8697;BME280;4385;48.848;8.924;2023-01-26T08:55:00;97727.94;;;16.78;100.00
8697;BME280;4385;48.848;8.924;2023-01-26T08:57:25;97730.44;;;16.81;100.00
8697;BME280;4385;48.848;8.924;2023-01-26T08:59:51;97726.13;;;16.87;100.00
8697;BME280;4385;48.848;8.924;2023-01-26T09:02:16;97723.50;;;16.93;100.00
8697;BME280;4385;48.848;8.924;2023-01-26T09:04:41;97719.19;;;17.00;100.00
8697;BME280;4385;48.848;8.924;2023-01-26T09:07:07;97726.78;;;17.04;100.00
8697;BME280;4385;48.848;8.924;2023-01-26T09:09:32;97727.59;;;17.10;100.00
8697;BME280;4385;48.848;8.924;2023-01-26T09:11:57;97721.59;;;17.14;100.00
8697;BME280;4385;48.848;8.924;2023-01-26T09:14:23;97713.06;;;17.16;100.00
8697;BME280;4385;48.848;8.924;2023-01-26T09:16:48;97721.56;;;17.17;100.00
8697;BME280;4385;48.848;8.924;2023-01-26T09:19:14;97720.72;;;17.15;100.00
8697;BME280;4385;48.848;8.924;2023-01-26T09:21:39;97718.22;;;17.12;100.00
8697;BME280;4385;48.848;8.924;2023-01-26T09:24:04;97724.22;;;17.07;100.00
8697;BME280;4385;48.848;8.924;2023-01-26T09:26:30;97725.13;;;17.02;100.00
8697;BME280;4385;48.848;8.924;2023-01-26T09:28:55;97729.41;;;16.98;100.00
8697;BME280;4385;48.848;8.924;2023-01-26T09:31:21;97729.47;;;16.92;100.00
8697;BME280;4385;48.848;8.924;2023-01-26T09:33:48;97735.47;;;16.88;100.00
8697;BME280;4385;48.848;8.924;2023-01-26T09:36:14;97727.88;;;16.85;100.00
8697;BME280;4385;48.848;8.924;2023-01-26T09:38:39;97734.72;;;16.79;100.00
8697;BME280;4385;48.848;8.924;2023-01-26T09:44:09;97730.56;;;16.72;100.00
8697;BME280;4385;48.848;8.924;2023-01-26T09:46:49;97738.22;;;16.69;100.00
8697;BME280;4385;48.848;8.924;2023-01-26T09:49:27;97734.88;;;16.64;100.00
8697;BME280;4385;48.848;8.924;2023-01-26T09:52:01;97733.22;;;16.61;100.00
8697;BME280;4385;48.848;8.924;2023-01-26T09:57:10;97732.41;;;16.57;100.00
8697;BME280;4385;48.848;8.924;2023-01-26T10:02:33;97723.13;;;16.53;100.00
8697;BME280;4385;48.848;8.924;2023-01-26T10:05:10;97727.38;;;16.51;100.00
8697;BME280;4385;48.848;8.924;2023-01-26T10:07:41;97729.03;;;16.52;100.00
8697;BME280;4385;48.848;8.924;2023-01-26T10:10:24;97722.31;;;16.50;100.00
8697;BME280;4385;48.848;8.924;2023-01-26T10:12:50;97725.72;;;16.49;100.00
8697;BME280;4385;48.848;8.924;2023-01-26T10:17:46;97727.44;;;16.47;100.00
8697;BME280;4385;48.848;8.924;2023-01-26T10:22:51;97718.94;;;16.44;100.00
8697;BME280;4385;48.848;8.924;2023-01-26T10:25:42;97720.72;;;16.41;100.00
8697;BME280;4385;48.848;8.924;2023-01-26T10:28:28;97719.88;;;16.39;100.00
8697;BME280;4385;48.848;8.924;2023-01-26T10:30:54;97719.91;;;16.36;100.00
8697;BME280;4385;48.848;8.924;2023-01-26T10:35:47;97720.81;;;16.28;100.00
8697;BME280;4385;48.848;8.924;2023-01-26T10:38:46;97716.59;;;16.24;100.00
8697;BME280;4385;48.848;8.924;2023-01-26T10:46:39;97715.84;;;16.16;100.00
8697;BME280;4385;48.848;8.924;2023-01-26T10:51:36;97709.94;;;16.14;100.00
8697;BME280;4385;48.848;8.924;2023-01-26T10:54:24;97709.94;;;16.14;100.00
8697;BME280;4385;48.848;8.924;2023-01-26T10:57:03;97703.97;;;16.15;100.00
8697;BME280;4385;48.848;8.924;2023-01-26T10:59:50;97706.50;;;16.18;100.00
8697;BME280;4385;48.848;8.924;2023-01-26T11:02:22;97718.34;;;16.22;100.00
8697;BME280;4385;48.848;8.924;2023-01-26T11:07:38;97705.56;;;16.30;100.00
8697;BME280;4385;48.848;8.924;2023-01-26T11:12:44;97704.59;;;16.39;100.00
8697;BME280;4385;48.848;8.924;2023-01-26T11:15:18;97702.03;;;16.42;100.00
8697;BME280;4385;48.848;8.924;2023-01-26T11:17:59;97700.31;;;16.44;100.00
8697;BME280;4385;48.848;8.924;2023-01-26T11:26:20;97682.53;;;16.44;100.00
8697;BME280;4385;48.848;8.924;2023-01-26T11:31:42;97683.38;;;16.40;100.00
8697;BME280;4385;48.848;8.924;2023-01-26T11:36:54;97685.16;;;16.36;100.00
8697;BME280;4385;48.848;8.924;2023-01-26T11:39:31;97671.63;;;16.32;100.00
8697;BME280;4385;48.848;8.924;2023-01-26T11:42:22;97668.25;;;16.29;100.00
8697;BME280;4385;48.848;8.924;2023-01-26T11:45:19;97675.09;;;16.25;100.00
8697;BME280;4385;48.848;8.924;2023-01-26T11:47:57;97671.72;;;16.23;100.00
8697;BME280;4385;48.848;8.924;2023-01-26T11:50:33;97670.88;;;16.21;100.00
8697;BME280;4385;48.848;8.924;2023-01-26T11:56:24;97670.06;;;16.19;100.00
8697;BME280;4385;48.848;8.924;2023-01-26T11:59:02;97667.53;;;16.19;100.00
8697;BME280;4385;48.848;8.924;2023-01-26T12:01:34;97659.91;;;16.17;100.00
8697;BME280;4385;48.848;8.924;2023-01-26T12:04:03;97656.50;;;16.18;100.00
8697;BME280;4385;48.848;8.924;2023-01-26T12:06:39;97653.94;;;16.18;100.00
8697;BME280;4385;48.848;8.924;2023-01-26T12:12:04;97648.00;;;16.19;100.00
8697;BME280;4385;48.848;8.924;2023-01-26T12:14:56;97638.69;;;16.20;100.00
8697;BME280;4385;48.848;8.924;2023-01-26T12:22:51;97642.03;;;16.25;100.00
8697;BME280;4385;48.848;8.924;2023-01-26T12:25:35;97623.38;;;16.26;100.00
8697;BME280;4385;48.848;8.924;2023-01-26T12:28:20;97636.09;;;16.25;100.00
8697;BME280;4385;48.848;8.924;2023-01-26T12:33:31;97626.81;;;16.20;100.00
8697;BME280;4385;48.848;8.924;2023-01-26T12:36:07;97624.31;;;16.17;100.00
8697;BME280;4385;48.848;8.924;2023-01-26T12:38:56;97632.00;;;16.13;100.00
8697;BME280;4385;48.848;8.924;2023-01-26T12:41:39;97624.41;;;16.10;100.00
8697;BME280;4385;48.848;8.924;2023-01-26T12:44:27;97624.44;;;16.06;100.00
8697;BME280;4385;48.848;8.924;2023-01-26T12:49:49;97614.31;;;16.02;100.00
8697;BME280;4385;48.848;8.924;2023-01-26T12:57:52;97610.88;;;16.04;100.00
8697;BME280;4385;48.848;8.924;2023-01-26T13:00:21;97620.19;;;16.05;100.00
8697;BME280;4385;48.848;8.924;2023-01-26T13:02:52;97615.94;;;16.06;100.00
8697;BME280;4385;48.848;8.924;2023-01-26T13:06:00;97623.56;;;16.07;100.00
8697;BME280;4385;48.848;8.924;2023-01-26T13:10:54;97614.22;;;16.10;100.00
8697;BME280;4385;48.848;8.924;2023-01-26T13:15:44;97601.50;;;16.10;100.00
8697;BME280;4385;48.848;8.924;2023-01-26T13:18:15;97596.44;;;16.10;100.00
8697;BME280;4385;48.848;8.924;2023-01-26T13:20:46;97600.66;;;16.11;100.00
8697;BME280;4385;48.848;8.924;2023-01-26T13:28:36;97593.06;;;16.06;100.00
8697;BME280;4385;48.848;8.924;2023-01-26T13:31:03;97589.72;;;16.02;100.00
8697;BME280;4385;48.848;8.924;2023-01-26T13:33:29;97602.44;;;16.01;100.00
8697;BME280;4385;48.848;8.924;2023-01-26T13:35:54;97600.78;;;15.98;100.00
8697;BME280;4385;48.848;8.924;2023-01-26T13:38:31;97605.84;;;15.95;100.00
8697;BME280;4385;48.848;8.924;2023-01-26T13:40:57;97598.25;;;15.92;100.00
8697;BME280;4385;48.848;8.924;2023-01-26T13:48:50;97597.47;;;15.85;100.00
8697;BME280;4385;48.848;8.924;2023-01-26T13:53:53;97595.78;;;15.87;100.00
8697;BME280;4385;48.848;8.924;2023-01-26T13:56:22;97598.28;;;15.89;100.00
8697;BME280;4385;48.848;8.924;2023-01-26T13:58:48;97604.16;;;15.92;100.00
8697;BME280;4385;48.848;8.924;2023-01-26T14:01:14;97600.75;;;15.96;100.00
8697;BME280;4385;48.848;8.924;2023-01-26T14:03:41;97609.22;;;16.02;100.00
8697;BME280;4385;48.848;8.924;2023-01-26T14:06:09;97611.72;;;16.06;100.00
8697;BME280;4385;48.848;8.924;2023-01-26T14:08:37;97604.84;;;16.12;100.00
8697;BME280;4385;48.848;8.924;2023-01-26T14:11:13;97608.22;;;16.17;100.00
8697;BME280;4385;48.848;8.924;2023-01-26T14:13:39;97609.84;;;16.21;100.00
8697;BME280;4385;48.848;8.924;2023-01-26T14:16:06;97617.44;;;16.24;100.00
8697;BME280;4385;48.848;8.924;2023-01-26T14:18:32;97619.94;;;16.27;100.00
8697;BME280;4385;48.848;8.924;2023-01-26T14:20:59;97618.25;;;16.28;100.00
8697;BME280;4385;48.848;8.924;2023-01-26T14:23:27;97612.31;;;16.27;100.00
8697;BME280;4385;48.848;8.924;2023-01-26T14:26:20;97617.41;;;16.27;100.00
8697;BME280;4385;48.848;8.924;2023-01-26T14:28:44;97616.59;;;16.25;100.00
8697;BME280;4385;48.848;8.924;2023-01-26T14:31:17;97610.66;;;16.25;100.00
8697;BME280;4385;48.848;8.924;2023-01-26T14:33:44;97622.53;;;16.23;100.00
8697;BME280;4385;48.848;8.924;2023-01-26T14:36:15;97610.69;;;16.22;100.00
8697;BME280;4385;48.848;8.924;2023-01-26T14:38:42;97613.25;;;16.20;100.00
8697;BME280;4385;48.848;8.924;2023-01-26T14:41:27;97617.50;;;16.18;100.00
8697;BME280;4385;48.848;8.924;2023-01-26T14:43:56;97625.16;;;16.15;100.00
8697;BME280;4385;48.848;8.924;2023-01-26T14:46:41;97630.28;;;16.13;100.00
8697;BME280;4385;48.848;8.924;2023-01-26T14:49:13;97627.75;;;16.10;100.00